Date,TemperatureHighF,TemperatureAvgF,TemperatureLowF,DewpointHighF,DewpointAvgF,DewpointLowF,HumidityHigh,HumidityAvg,HumidityLow,PressureMaxIn,PressureMinIn,WindSpeedMaxMPH,WindSpeedAvgMPH,GustSpeedMaxMPH,PrecipitationSumIn
2013-12-1,70.4,57.1,46.1,50.6,45.2,41.9,87,66,39,30.36,30.23,3,1,4,0.00
2013-12-2,60.0,52.6,47.3,51.5,47.2,42.1,96,82,69,30.25,29.98,4,1,7,0.00
2013-12-3,53.7,48.5,41.2,52.9,36.0,19.8,97,64,37,29.98,29.87,8,2,12,0.00
2013-12-4,50.8,42.1,35.1,27.7,19.3,12.5,69,41,29,30.09,29.95,4,1,7,0.00
2013-12-5,50.3,39.6,31.5,24.3,16.5,12.4,62,40,26,30.18,30.08,5,1,7,0.00
2013-12-6,49.6,43.0,34.3,45.8,32.6,24.6,97,68,42,30.20,29.92,6,2,8,0.45
2013-12-7,46.9,41.2,34.0,44.4,31.6,24.5,96,71,43,30.21,29.93,10,2,15,0.10
2013-12-8,36.1,32.7,29.6,28.4,22.8,14.4,89,69,41,30.32,30.24,4,0,0,0.00
2013-12-9,50.0,39.6,31.4,25.8,19.1,8.6,62,45,27,30.42,30.31,6,2,0,0.00
2013-12-10,53.9,41.2,33.9,29.6,26.0,23.3,73,55,35,30.41,30.22,5,2,0,0.00
2013-12-11,56.8,45.6,34.1,31.1,26.7,23.3,69,49,32,30.25,30.18,14,2,4,0.00
2013-12-12,60.3,48.0,40.9,37.1,32.4,27.4,76,56,34,30.27,30.17,5,2,7,0.00
2013-12-13,59.2,46.6,37.2,44.5,39.4,34.6,97,77,55,30.35,30.24,3,1,4,0.00
2013-12-14,61.6,50.2,41.3,39.8,33.6,28.3,76,54,36,30.41,30.32,5,1,8,0.00
2013-12-15,64.0,52.5,44.5,40.4,34.4,28.7,66,51,35,30.37,30.25,4,2,7,0.00
2013-12-16,69.8,57.3,48.1,37.5,32.6,27.8,48,40,27,30.26,30.13,4,2,10,0.00
2013-12-17,66.1,56.3,48.7,40.7,36.1,29.9,56,47,36,30.19,30.04,6,1,8,0.00
2013-12-18,59.3,51.5,45.7,47.6,40.6,33.0,94,68,47,30.05,29.79,5,2,10,0.00
2013-12-19,59.3,47.8,40.0,45.6,34.3,18.2,94,64,33,29.95,29.74,4,1,7,0.00
2013-12-20,59.7,48.6,37.4,28.1,19.5,12.9,49,32,18,30.03,29.94,5,1,6,0.00
2013-12-21,62.0,50.8,42.7,48.6,42.0,28.1,92,73,53,30.10,29.99,3,1,6,0.00
2013-12-22,67.5,54.9,45.0,44.2,38.7,36.1,89,57,34,30.30,30.09,5,1,9,0.00
2013-12-23,65.2,53.3,43.7,40.6,37.9,36.0,75,57,38,30.40,30.30,5,1,7,0.00
2013-12-24,70.8,57.1,47.4,42.3,38.4,34.0,68,51,33,30.35,30.22,4,1,8,0.00
2013-12-25,66.7,56.3,46.3,42.6,36.7,30.4,66,48,38,30.30,30.21,6,2,8,0.00
2013-12-26,69.9,57.4,46.3,41.1,36.9,31.3,73,48,33,30.27,30.17,5,2,11,0.00
2013-12-27,62.5,55.3,47.7,44.1,38.1,32.1,67,53,44,30.24,30.14,7,2,9,0.01
2013-12-28,65.9,52.0,43.2,40.2,33.3,22.0,70,51,25,30.16,30.04,4,1,5,0.00
2013-12-29,70.5,59.0,49.6,32.2,21.8,13.2,50,25,16,30.19,30.10,5,2,10,0.00
2013-12-30,64.7,53.6,45.9,40.6,35.1,30.8,66,50,33,30.27,30.19,6,2,8,0.00
2013-12-31,63.1,50.0,42.2,46.0,37.4,28.8,76,62,47,30.28,30.17,3,1,5,0.00